Time;durP1;ratioP1;P1;durP2;ratioP2;P2;SDS_P1;SDS_P2;PMS_P1;PMS_P2;Temp;Humidity;BMP_temperature;BMP_pressure;BME280_temperature;BME280_humidity;BME280_pressure;Samples;Min_cycle;Max_cycle;Signal;HPM_P1;HPM_P2
2022/12/06 00:01:04;;;;;;;6.27;4.80;;;15.40;61.40;;;;;;4995956;28;20446;-82
2022/12/06 00:03:32;;;;;;;4.93;4.50;;;15.40;61.50;;;;;;4995509;28;20441;-83
2022/12/06 00:06:02;;;;;;;6.27;4.90;;;15.30;61.30;;;;;;4998301;28;20437;-84
2022/12/06 00:08:30;;;;;;;5.40;4.50;;;15.40;61.60;;;;;;4997274;28;20485;-83
2022/12/06 00:11:06;;;;;;;5.33;4.83;;;15.40;61.50;;;;;;4995936;28;20464;-84
2022/12/06 00:13:38;;;;;;;6.60;5.13;;;15.40;61.50;;;;;;4998511;28;20479;-83
2022/12/06 00:16:06;;;;;;;7.37;5.37;;;15.40;61.60;;;;;;4999464;28;20452;-82
2022/12/06 00:18:35;;;;;;;5.60;5.00;;;15.40;61.50;;;;;;4998035;28;20484;-84
2022/12/06 00:21:08;;;;;;;6.57;5.43;;;15.40;61.40;;;;;;4999879;28;20437;-83
2022/12/06 00:23:37;;;;;;;5.37;4.87;;;15.40;61.60;;;;;;5010612;28;20448;-83
2022/12/06 00:26:05;;;;;;;4.90;4.50;;;15.40;61.60;;;;;;4998187;28;20448;-83
2022/12/06 00:28:33;;;;;;;6.20;4.80;;;15.40;61.50;;;;;;4996305;28;20480;-84
2022/12/06 00:31:04;;;;;;;6.40;5.40;;;15.40;61.70;;;;;;4996816;28;20456;-84
2022/12/06 00:33:33;;;;;;;5.20;4.50;;;15.40;61.70;;;;;;4996719;28;20500;-84
2022/12/06 00:36:01;;;;;;;5.43;4.90;;;15.40;61.60;;;;;;4994333;28;20456;-82
2022/12/06 00:38:29;;;;;;;5.00;4.50;;;15.40;61.70;;;;;;4989314;28;20480;-83
2022/12/06 00:41:00;;;;;;;5.93;4.63;;;15.40;61.60;;;;;;4996970;28;20445;-83
2022/12/06 00:43:28;;;;;;;6.07;5.00;;;15.40;61.60;;;;;;4993567;28;20450;-83
2022/12/06 00:45:56;;;;;;;5.27;4.40;;;15.40;61.60;;;;;;4986826;28;20453;-84
2022/12/06 00:48:26;;;;;;;6.20;4.70;;;15.40;61.70;;;;;;4992662;28;20523;-83
2022/12/06 00:50:54;;;;;;;7.23;5.07;;;15.40;61.60;;;;;;4997536;28;20459;-83
2022/12/06 00:53:23;;;;;;;6.87;5.07;;;15.40;61.60;;;;;;4997238;28;20491;-83
2022/12/06 00:55:51;;;;;;;6.00;5.20;;;15.40;61.50;;;;;;4997052;28;20449;-83
2022/12/06 00:58:19;;;;;;;5.60;4.47;;;15.40;61.40;;;;;;4995391;28;20477;-83
2022/12/06 01:00:47;;;;;;;5.50;4.70;;;15.40;61.60;;;;;;4993894;28;20496;-84
2022/12/06 01:03:15;;;;;;;5.27;4.57;;;15.40;61.40;;;;;;4990935;28;20464;-84
2022/12/06 01:05:46;;;;;;;5.70;5.07;;;15.40;61.40;;;;;;4993827;28;20483;-82
2022/12/06 01:08:14;;;;;;;5.77;4.60;;;15.40;61.50;;;;;;4994777;28;20481;-81
2022/12/06 01:10:42;;;;;;;5.50;4.10;;;15.40;61.50;;;;;;4993732;28;20454;-81
2022/12/06 01:13:10;;;;;;;5.47;4.37;;;15.40;61.50;;;;;;4994709;28;20453;-83
2022/12/06 01:15:38;;;;;;;4.90;4.40;;;15.40;61.30;;;;;;4991315;28;20485;-83
2022/12/06 01:18:06;;;;;;;6.00;4.63;;;15.40;61.40;;;;;;4995100;28;20484;-82
2022/12/06 01:20:35;;;;;;;4.93;4.43;;;15.40;61.40;;;;;;4993454;28;20449;-82
2022/12/06 01:23:04;;;;;;;4.97;4.23;;;15.40;61.50;;;;;;4997457;28;20453;-81
2022/12/06 01:25:32;;;;;;;5.33;4.73;;;15.40;61.60;;;;;;4995135;28;20476;-82
2022/12/06 01:28:03;;;;;;;6.03;4.70;;;15.40;61.60;;;;;;4991765;28;20477;-82
2022/12/06 01:30:32;;;;;;;4.50;4.10;;;15.40;61.50;;;;;;4998742;28;20544;-81
2022/12/06 01:33:00;;;;;;;5.50;5.00;;;15.40;61.60;;;;;;4995305;28;20532;-81
2022/12/06 01:35:28;;;;;;;4.93;4.40;;;15.40;61.40;;;;;;4996687;28;20480;-81
2022/12/06 01:37:56;;;;;;;5.20;4.70;;;15.40;61.50;;;;;;5000277;28;20476;-81
2022/12/06 01:40:37;;;;;;;5.83;4.80;;;15.40;61.50;;;;;;4996365;28;20481;-82
2022/12/06 01:43:04;;;;;;;5.83;4.90;;;15.40;61.60;;;;;;5000013;28;20457;-82
2022/12/06 01:45:33;;;;;;;6.17;5.00;;;15.40;61.50;;;;;;4999454;28;20465;-81
2022/12/06 01:48:01;;;;;;;4.90;4.40;;;15.40;61.60;;;;;;5000330;28;20481;-79
2022/12/06 01:50:31;;;;;;;7.40;5.23;;;15.40;61.60;;;;;;4997170;28;20457;-80
2022/12/06 01:53:00;;;;;;;7.17;4.80;;;15.40;61.40;;;;;;4997826;28;20508;-83
2022/12/06 01:55:34;;;;;;;5.10;4.43;;;15.40;61.50;;;;;;4999053;28;20483;-82
2022/12/06 01:58:05;;;;;;;5.43;4.73;;;15.40;61.60;;;;;;4998647;28;20473;-81
2022/12/06 02:00:33;;;;;;;5.30;4.60;;;15.40;61.60;;;;;;5002233;28;20488;-81
2022/12/06 02:03:01;;;;;;;5.07;4.30;;;15.40;61.50;;;;;;4997686;28;20453;-82
2022/12/06 02:05:30;;;;;;;5.77;5.13;;;15.40;61.60;;;;;;4999324;28;20449;-82
2022/12/06 02:08:04;;;;;;;6.70;4.43;;;15.40;61.60;;;;;;5000264;28;20482;-81
2022/12/06 02:10:34;;;;;;;5.07;4.23;;;15.40;61.70;;;;;;4998447;28;20473;-82
2022/12/06 02:13:02;;;;;;;5.10;4.47;;;15.50;61.50;;;;;;4999391;28;20449;-83
2022/12/06 02:15:39;;;;;;;6.03;5.00;;;15.50;61.50;;;;;;5002117;28;20465;-81
2022/12/06 02:18:10;;;;;;;5.57;4.03;;;15.40;61.30;;;;;;4995410;28;20484;-82
2022/12/06 02:20:41;;;;;;;5.47;4.67;;;15.40;61.40;;;;;;5000556;28;20449;-82
2022/12/06 02:23:37;;;;;;;6.60;3.80;;;15.40;61.30;;;;;;4999205;28;20460;-82
2022/12/06 02:26:35;;;;;;;5.17;4.20;;;15.50;61.70;;;;;;4994171;28;20453;-82
2022/12/06 02:29:25;;;;;;;4.60;4.20;;;15.50;61.50;;;;;;4998811;28;20461;-81
2022/12/06 02:31:56;;;;;;;4.00;3.57;;;15.50;61.50;;;;;;4996225;28;20458;-80
2022/12/06 02:34:29;;;;;;;5.33;4.20;;;15.40;61.40;;;;;;5003256;28;20473;-82
2022/12/06 02:36:59;;;;;;;7.00;4.60;;;15.40;61.50;;;;;;5003174;28;20465;-80
2022/12/06 02:39:28;;;;;;;4.07;3.73;;;15.40;61.40;;;;;;5000365;28;20465;-82
2022/12/06 02:41:57;;;;;;;4.90;4.10;;;15.40;61.60;;;;;;5004015;28;20472;-81
2022/12/06 02:44:27;;;;;;;4.97;4.00;;;15.40;61.50;;;;;;5004223;28;20434;-81
2022/12/06 02:46:56;;;;;;;6.13;3.87;;;15.50;61.60;;;;;;5002080;28;20469;-81
2022/12/06 02:49:25;;;;;;;4.00;3.60;;;15.50;61.50;;;;;;5002914;28;20461;-81
2022/12/06 02:51:53;;;;;;;4.33;3.63;;;15.40;61.40;;;;;;5000952;28;20482;-82
2022/12/06 02:54:22;;;;;;;5.13;3.70;;;15.50;61.40;;;;;;4996033;28;20500;-81
2022/12/06 02:56:49;;;;;;;3.93;3.63;;;15.40;61.40;;;;;;4996123;28;20513;-82
2022/12/06 02:59:17;;;;;;;4.90;4.07;;;15.40;61.40;;;;;;5000714;28;20456;-81
2022/12/06 03:01:47;;;;;;;4.23;3.53;;;15.40;61.40;;;;;;4997334;28;20461;-82
2022/12/06 03:04:31;;;;;;;4.80;3.80;;;15.50;61.60;;;;;;4996920;28;20445;-83
2022/12/06 03:07:09;;;;;;;4.07;3.50;;;15.50;61.40;;;;;;4993067;28;20477;-82
2022/12/06 03:09:48;;;;;;;4.27;3.87;;;15.40;61.40;;;;;;4998163;28;20477;-83
2022/12/06 03:12:29;;;;;;;5.10;3.70;;;15.50;61.50;;;;;;5002225;28;20452;-81
2022/12/06 03:15:04;;;;;;;5.70;3.77;;;15.40;61.30;;;;;;4999453;28;20461;-83
2022/12/06 03:17:35;;;;;;;4.90;3.93;;;15.40;61.40;;;;;;4996119;28;20484;-83
2022/12/06 03:20:08;;;;;;;4.23;3.60;;;15.40;61.40;;;;;;5000403;28;20457;-84
2022/12/06 03:22:38;;;;;;;4.20;3.77;;;15.50;61.50;;;;;;4997227;28;20469;-82
2022/12/06 03:25:07;;;;;;;3.60;3.30;;;15.50;61.40;;;;;;4998219;28;20450;-84
2022/12/06 03:27:35;;;;;;;3.70;3.40;;;15.50;61.50;;;;;;4995436;28;20494;-82
2022/12/06 03:30:07;;;;;;;3.60;3.13;;;15.40;61.30;;;;;;4991359;28;20458;-83
2022/12/06 03:32:35;;;;;;;3.77;3.40;;;15.40;61.30;;;;;;4991605;28;20457;-81
2022/12/06 03:35:07;;;;;;;3.73;3.43;;;15.40;61.30;;;;;;4991026;28;20473;-81
2022/12/06 03:37:36;;;;;;;3.77;3.47;;;15.40;61.40;;;;;;4991094;28;20481;-82
2022/12/06 03:40:08;;;;;;;3.73;3.43;;;15.40;61.30;;;;;;4988246;28;20508;-83
2022/12/06 03:42:36;;;;;;;5.17;3.77;;;15.40;61.40;;;;;;4991691;28;20461;-80
2022/12/06 03:45:05;;;;;;;4.03;3.63;;;15.40;61.30;;;;;;4991755;28;20452;-82
2022/12/06 03:47:36;;;;;;;3.80;3.50;;;15.40;61.30;;;;;;4993076;28;21042;-80
2022/12/06 03:50:08;;;;;;;3.93;3.60;;;15.40;61.40;;;;;;4995826;28;20468;-81
2022/12/06 03:52:36;;;;;;;4.30;3.60;;;15.50;61.30;;;;;;4990390;28;20458;-82
2022/12/06 03:55:05;;;;;;;5.13;3.60;;;15.40;61.30;;;;;;4996340;28;20480;-81
2022/12/06 03:57:33;;;;;;;3.77;3.47;;;15.40;61.30;;;;;;4998708;28;20487;-81
2022/12/06 04:00:02;;;;;;;3.90;3.60;;;15.40;61.50;;;;;;5001165;28;20469;-81
2022/12/06 04:02:30;;;;;;;4.30;3.57;;;15.40;61.50;;;;;;5004713;28;20535;-82
2022/12/06 04:04:58;;;;;;;4.10;3.37;;;15.40;61.40;;;;;;5006231;28;20449;-81
2022/12/06 04:07:28;;;;;;;3.80;3.50;;;15.40;61.40;;;;;;5005856;28;20475;-80
2022/12/06 04:10:01;;;;;;;3.53;3.30;;;15.40;61.30;;;;;;5002463;28;20464;-82
2022/12/06 04:15:16;;;;;;;3.90;3.50;;;15.40;61.40;;;;;;5005029;28;20480;-81
2022/12/06 04:23:02;;;;;;;3.70;3.40;;;15.30;61.30;;;;;;5002033;28;20462;-80
2022/12/06 04:23:18;;;;;;;3.77;3.40;;;15.30;61.40;;;;;;5000128;28;20445;-83
2022/12/06 04:25:46;;;;;;;4.77;3.40;;;15.30;61.40;;;;;;4995576;28;20461;-81
2022/12/06 04:39:21;;;;;;;3.23;2.90;;;15.30;61.50;;;;;;5001898;28;20467;-82
2022/12/06 04:44:34;;;;;;;5.30;3.27;;;15.30;61.40;;;;;;4996879;28;20453;-81
2022/12/06 04:47:02;;;;;;;3.80;2.90;;;15.30;61.50;;;;;;5001165;28;20496;-82
2022/12/06 04:49:30;;;;;;;3.50;3.20;;;15.30;61.40;;;;;;4996420;28;20465;-81
2022/12/06 04:51:58;;;;;;;2.80;2.60;;;15.30;61.40;;;;;;5000044;28;20453;-82
2022/12/06 04:54:30;;;;;;;4.13;3.10;;;15.30;61.40;;;;;;4999585;28;20464;-81
2022/12/06 04:56:58;;;;;;;2.90;2.70;;;15.30;61.40;;;;;;4991710;28;20478;-82
2022/12/06 04:59:27;;;;;;;4.17;3.07;;;15.30;61.60;;;;;;4999614;28;20454;-83
2022/12/06 05:01:55;;;;;;;4.40;3.23;;;15.30;61.50;;;;;;5002110;28;20449;-81
2022/12/06 05:04:24;;;;;;;3.00;2.80;;;15.40;61.40;;;;;;5000821;28;20457;-82
2022/12/06 05:06:52;;;;;;;3.00;2.80;;;15.30;61.20;;;;;;4998359;28;20473;-82
2022/12/06 05:09:20;;;;;;;3.13;2.83;;;15.30;61.30;;;;;;5000034;28;20885;-82
2022/12/06 05:11:50;;;;;;;3.43;3.10;;;15.30;61.40;;;;;;5000001;28;20445;-82
2022/12/06 05:14:18;;;;;;;2.97;2.77;;;15.30;61.30;;;;;;4998418;28;20457;-81
2022/12/06 05:16:46;;;;;;;2.97;2.60;;;15.30;61.30;;;;;;4963545;28;1054755;-82
2022/12/06 05:19:15;;;;;;;3.10;2.80;;;15.30;61.30;;;;;;5001463;28;20464;-82
2022/12/06 05:21:43;;;;;;;2.70;2.50;;;15.30;61.30;;;;;;5002921;28;20462;-82
2022/12/06 05:24:11;;;;;;;3.40;3.10;;;15.30;61.30;;;;;;5002855;28;20460;-82
2022/12/06 05:26:39;;;;;;;3.00;2.80;;;15.30;61.40;;;;;;5001319;28;20473;-81
2022/12/06 05:29:08;;;;;;;2.60;2.40;;;15.30;61.40;;;;;;5004068;28;20453;-82
2022/12/06 05:31:37;;;;;;;2.83;2.63;;;15.30;61.40;;;;;;4998955;28;20457;-81
2022/12/06 05:34:05;;;;;;;3.00;2.77;;;15.30;61.30;;;;;;5000798;28;20450;-82
2022/12/06 05:36:33;;;;;;;2.77;2.60;;;15.30;61.40;;;;;;4999951;28;20477;-82
2022/12/06 05:39:01;;;;;;;2.87;2.67;;;15.30;61.50;;;;;;5000039;28;20453;-82
2022/12/06 05:41:29;;;;;;;3.07;2.77;;;15.30;61.30;;;;;;5000136;28;20464;-82
2022/12/06 05:43:57;;;;;;;2.73;2.53;;;15.30;61.50;;;;;;4999212;28;20521;-82
2022/12/06 05:46:27;;;;;;;5.70;3.20;;;15.30;61.30;;;;;;4998216;28;20461;-83
2022/12/06 05:48:54;;;;;;;4.17;3.50;;;15.30;61.40;;;;;;5001729;28;20468;-83
2022/12/06 05:51:23;;;;;;;3.73;3.13;;;15.30;61.30;;;;;;4994665;28;20453;-82
2022/12/06 05:53:51;;;;;;;3.33;2.90;;;15.30;61.40;;;;;;5001245;28;20464;-83
2022/12/06 05:56:19;;;;;;;2.97;2.73;;;15.30;61.20;;;;;;4999089;28;20481;-82
2022/12/06 05:58:47;;;;;;;3.60;3.27;;;15.30;61.30;;;;;;5000700;28;20465;-82
2022/12/06 06:01:15;;;;;;;2.67;2.47;;;15.20;61.20;;;;;;4998490;28;20461;-82
2022/12/06 06:03:45;;;;;;;3.00;2.80;;;15.30;61.20;;;;;;4998586;28;20445;-82
2022/12/06 06:06:14;;;;;;;3.27;2.97;;;15.30;61.30;;;;;;4996138;28;20441;-82
2022/12/06 06:08:42;;;;;;;2.87;2.60;;;15.30;61.30;;;;;;4995674;28;20473;-82
2022/12/06 06:11:10;;;;;;;2.87;2.63;;;15.30;61.30;;;;;;4995909;28;20518;-82
2022/12/06 06:13:39;;;;;;;2.93;2.73;;;15.30;61.20;;;;;;4997271;28;20445;-82
2022/12/06 06:16:07;;;;;;;2.57;2.40;;;15.30;61.10;;;;;;4996961;28;20457;-82
2022/12/06 06:18:36;;;;;;;3.23;2.70;;;15.30;61.20;;;;;;4999809;28;20584;-82
2022/12/06 06:21:06;;;;;;;2.70;2.60;;;15.30;61.20;;;;;;4995937;28;20548;-82
2022/12/06 06:23:34;;;;;;;2.97;2.70;;;15.30;61.20;;;;;;5000023;28;20469;-82
2022/12/06 06:26:07;;;;;;;2.80;2.60;;;15.30;61.10;;;;;;5001336;28;20462;-82
2022/12/06 06:28:34;;;;;;;2.90;2.60;;;15.20;61.00;;;;;;5009531;28;20449;-84
2022/12/06 06:31:03;;;;;;;3.03;2.23;;;15.20;61.20;;;;;;4991345;28;20449;-81
2022/12/06 06:33:31;;;;;;;2.57;2.40;;;15.20;61.20;;;;;;4989777;28;20966;-82
2022/12/06 06:35:59;;;;;;;3.20;2.90;;;15.20;61.10;;;;;;4992229;28;20482;-82
2022/12/06 06:38:29;;;;;;;2.73;2.53;;;15.20;61.00;;;;;;4997030;28;20489;-82
2022/12/06 06:40:57;;;;;;;2.40;2.30;;;15.20;61.10;;;;;;5000623;28;20461;-82
2022/12/06 06:43:25;;;;;;;3.77;3.40;;;15.20;61.10;;;;;;4994995;28;20464;-82
2022/12/06 06:45:53;;;;;;;3.23;2.37;;;15.20;61.00;;;;;;4996709;28;20454;-80
2022/12/06 06:48:22;;;;;;;2.40;2.20;;;15.20;61.10;;;;;;4999083;28;20477;-82
2022/12/06 06:50:50;;;;;;;2.80;2.60;;;15.20;61.10;;;;;;4997159;28;20453;-81
2022/12/06 06:53:25;;;;;;;2.70;2.40;;;15.20;61.20;;;;;;4996006;28;20459;-81
2022/12/06 06:55:54;;;;;;;2.40;2.30;;;15.20;60.90;;;;;;4999298;28;20489;-82
2022/12/06 06:58:22;;;;;;;2.67;2.47;;;15.20;61.10;;;;;;4997138;28;20484;-82
2022/12/06 07:00:52;;;;;;;2.70;2.50;;;15.10;60.90;;;;;;4998785;28;20458;-82
2022/12/06 07:03:20;;;;;;;3.07;2.77;;;15.20;61.10;;;;;;4999031;28;20481;-82
2022/12/06 07:05:51;;;;;;;2.40;2.30;;;15.10;60.90;;;;;;4997839;28;20449;-82
2022/12/06 07:08:20;;;;;;;2.63;2.40;;;15.10;60.90;;;;;;5000582;28;20469;-82
2022/12/06 07:10:48;;;;;;;2.63;2.43;;;15.20;61.00;;;;;;4998590;28;20453;-82
2022/12/06 07:13:19;;;;;;;2.80;2.60;;;15.20;61.00;;;;;;4999638;28;20461;-82
2022/12/06 07:15:47;;;;;;;2.70;2.20;;;15.10;61.00;;;;;;4996968;28;20461;-82
2022/12/06 07:18:16;;;;;;;3.40;2.63;;;15.10;60.90;;;;;;4998870;28;20485;-82
2022/12/06 07:20:44;;;;;;;2.80;2.60;;;15.10;60.90;;;;;;5000715;28;20453;-83
2022/12/06 07:23:12;;;;;;;2.70;2.27;;;15.10;60.90;;;;;;4999535;28;20456;-82
2022/12/06 07:25:40;;;;;;;2.57;2.33;;;15.10;60.90;;;;;;4997058;28;20462;-82
2022/12/06 07:28:08;;;;;;;2.57;2.43;;;15.10;60.90;;;;;;4998031;28;20476;-81
2022/12/06 07:30:38;;;;;;;2.60;2.40;;;15.10;61.00;;;;;;4995553;28;20450;-81
2022/12/06 07:33:06;;;;;;;2.80;2.60;;;15.10;61.00;;;;;;4998676;28;20453;-81
2022/12/06 07:35:34;;;;;;;2.27;2.17;;;15.10;61.10;;;;;;5000338;28;20455;-81
2022/12/06 07:38:23;;;;;;;2.20;2.10;;;15.10;61.00;;;;;;5000795;28;20465;-82
2022/12/06 07:40:50;;;;;;;2.80;2.60;;;15.10;60.90;;;;;;4998068;28;20465;-80
2022/12/06 07:46:21;;;;;;;2.57;2.37;;;15.10;60.90;;;;;;4999263;28;20449;-82
2022/12/06 07:48:49;;;;;;;3.10;2.60;;;15.10;61.20;;;;;;4998831;28;20449;-81
2022/12/06 07:51:17;;;;;;;2.57;2.37;;;15.10;61.10;;;;;;5003054;28;20448;-82
2022/12/06 07:53:45;;;;;;;2.40;2.30;;;15.10;61.10;;;;;;4998619;28;20465;-82
2022/12/06 07:56:12;;;;;;;2.77;2.50;;;15.10;61.00;;;;;;4996811;28;20457;-82
2022/12/06 07:58:41;;;;;;;2.40;2.30;;;15.10;61.10;;;;;;4996597;28;20474;-81
2022/12/06 08:01:09;;;;;;;2.80;2.60;;;15.10;61.10;;;;;;4997683;28;20457;-81
2022/12/06 08:03:38;;;;;;;2.23;2.13;;;15.10;61.10;;;;;;4996924;28;20445;-81
2022/12/06 08:06:07;;;;;;;4.00;2.93;;;15.10;61.00;;;;;;4999827;28;20449;-82
2022/12/06 08:08:35;;;;;;;2.67;2.47;;;15.20;61.00;;;;;;4998040;28;20469;-82
2022/12/06 08:11:04;;;;;;;3.13;2.83;;;15.10;60.90;;;;;;4997385;28;20461;-82
2022/12/06 08:13:33;;;;;;;2.30;2.20;;;15.10;61.20;;;;;;4989415;28;20462;-81
2022/12/06 08:16:04;;;;;;;3.57;2.57;;;15.10;61.20;;;;;;5000624;28;20489;-82
2022/12/06 08:18:32;;;;;;;3.70;2.40;;;15.10;61.10;;;;;;4991815;28;20478;-82
2022/12/06 08:21:02;;;;;;;2.20;2.10;;;15.20;61.30;;;;;;4994424;28;20457;-80
2022/12/06 08:23:30;;;;;;;2.93;2.10;;;15.20;61.20;;;;;;4993174;28;20458;-82
2022/12/06 08:26:02;;;;;;;2.53;2.43;;;15.20;61.20;;;;;;4994898;28;20465;-81
2022/12/06 08:28:30;;;;;;;2.40;2.20;;;15.20;61.10;;;;;;4992493;28;20466;-80
2022/12/06 08:30:58;;;;;;;2.27;2.17;;;15.20;61.20;;;;;;4996495;28;20456;-81
2022/12/06 08:33:32;;;;;;;2.90;2.70;;;15.20;61.20;;;;;;4990970;28;20497;-81
2022/12/06 08:36:01;;;;;;;2.23;2.03;;;15.30;61.20;;;;;;4996929;28;20465;-81
2022/12/06 08:38:29;;;;;;;2.73;2.53;;;15.30;61.20;;;;;;4997838;28;20483;-82
2022/12/06 08:40:57;;;;;;;2.57;2.47;;;15.30;61.10;;;;;;4999675;28;20449;-80
2022/12/06 08:43:25;;;;;;;2.40;2.10;;;15.30;61.20;;;;;;4999990;28;20453;-82
2022/12/06 08:45:53;;;;;;;2.20;2.10;;;15.30;61.20;;;;;;4996537;28;20457;-82
2022/12/06 08:48:22;;;;;;;2.40;2.20;;;15.40;61.10;;;;;;5001460;28;20476;-82
2022/12/06 08:50:50;;;;;;;2.40;2.20;;;15.40;61.20;;;;;;4998019;28;20463;-82
2022/12/06 08:53:19;;;;;;;2.97;2.27;;;15.40;61.20;;;;;;5001997;28;20453;-82
2022/12/06 08:55:55;;;;;;;2.27;2.07;;;15.40;61.10;;;;;;4998533;28;20468;-82
2022/12/06 08:58:29;;;;;;;1.93;1.83;;;15.40;61.20;;;;;;4999224;28;20543;-82
2022/12/06 09:00:57;;;;;;;2.23;2.13;;;15.30;61.20;;;;;;5001415;28;20457;-83
2022/12/06 09:03:26;;;;;;;2.40;2.20;;;15.40;61.00;;;;;;4999400;28;20463;-84
2022/12/06 09:05:54;;;;;;;2.47;2.27;;;15.40;61.10;;;;;;5000162;28;20457;-82
2022/12/06 09:08:23;;;;;;;4.03;2.53;;;15.40;61.00;;;;;;4997947;28;20469;-83
2022/12/06 09:10:52;;;;;;;2.63;1.90;;;15.40;60.90;;;;;;4998682;28;20461;-83
2022/12/06 09:13:20;;;;;;;2.50;2.30;;;15.40;61.00;;;;;;4994448;28;20464;-83
2022/12/06 09:15:47;;;;;;;2.50;2.30;;;15.40;61.00;;;;;;5001537;28;20461;-83
2022/12/06 09:18:15;;;;;;;2.50;2.33;;;15.40;61.20;;;;;;5002553;28;20485;-82
2022/12/06 09:20:44;;;;;;;2.30;2.20;;;15.40;60.90;;;;;;4992430;28;20485;-83
2022/12/06 09:23:12;;;;;;;1.97;1.87;;;15.40;61.00;;;;;;4998384;28;20463;-83
2022/12/06 09:25:42;;;;;;;2.00;1.90;;;15.50;61.10;;;;;;4993981;28;20450;-82
2022/12/06 09:28:10;;;;;;;2.27;2.07;;;15.40;61.00;;;;;;4996968;28;20465;-83
2022/12/06 09:30:38;;;;;;;1.90;1.80;;;15.50;61.20;;;;;;5005036;28;20431;-84
2022/12/06 09:33:07;;;;;;;2.60;2.40;;;15.50;61.00;;;;;;5001937;28;20457;-82
2022/12/06 09:35:35;;;;;;;1.70;1.60;;;15.50;61.10;;;;;;4998567;28;20459;-83
2022/12/06 09:38:03;;;;;;;2.10;2.00;;;15.50;60.90;;;;;;4999146;28;20484;-83
2022/12/06 09:40:33;;;;;;;2.00;1.90;;;15.50;61.10;;;;;;5004278;28;20460;-83
2022/12/06 09:43:15;;;;;;;2.13;2.03;;;15.50;60.90;;;;;;5004580;28;20483;-83
2022/12/06 09:46:21;;;;;;;2.00;1.90;;;15.50;61.10;;;;;;5003917;28;20464;-83
2022/12/06 09:49:08;;;;;;;2.30;2.10;;;15.60;61.10;;;;;;4998901;28;20441;-84
2022/12/06 09:51:47;;;;;;;2.00;1.90;;;15.50;61.00;;;;;;4998772;28;20488;-83
2022/12/06 09:54:25;;;;;;;2.00;1.90;;;15.60;61.00;;;;;;5003378;28;20488;-80
2022/12/06 09:56:57;;;;;;;2.07;1.97;;;15.60;61.00;;;;;;5003606;28;20487;-82
2022/12/06 09:59:29;;;;;;;2.20;2.10;;;15.60;61.00;;;;;;4995681;28;20473;-82
2022/12/06 10:02:11;;;;;;;1.70;1.63;;;15.60;60.90;;;;;;4995855;28;20468;-82
2022/12/06 10:04:46;;;;;;;2.80;1.87;;;15.70;61.00;;;;;;5000156;28;20465;-82
2022/12/06 10:07:17;;;;;;;1.83;1.73;;;15.60;60.90;;;;;;4998864;28;20476;-82
2022/12/06 10:09:52;;;;;;;2.00;1.90;;;15.70;61.00;;;;;;4993048;28;20453;-82
2022/12/06 10:12:29;;;;;;;2.27;2.07;;;15.70;60.80;;;;;;5003232;28;20453;-82
2022/12/06 10:15:09;;;;;;;2.30;2.10;;;15.70;60.70;;;;;;5002141;28;20480;-82
2022/12/06 10:17:41;;;;;;;1.90;1.80;;;15.70;60.90;;;;;;4997340;28;20481;-81
2022/12/06 10:20:18;;;;;;;1.93;1.83;;;15.70;60.90;;;;;;5003458;28;20496;-81
2022/12/06 10:22:55;;;;;;;2.40;1.80;;;15.70;61.00;;;;;;4999032;28;20457;-81
2022/12/06 10:25:25;;;;;;;2.20;2.10;;;15.80;61.10;;;;;;5002767;28;20456;-81
2022/12/06 10:27:58;;;;;;;1.97;1.87;;;15.80;61.00;;;;;;5000677;28;20469;-81
2022/12/06 10:30:28;;;;;;;1.70;1.60;;;15.80;61.00;;;;;;4996136;28;20452;-81
2022/12/06 10:33:04;;;;;;;2.00;1.90;;;15.80;61.00;;;;;;4998416;28;20468;-80
2022/12/06 10:35:40;;;;;;;1.90;1.80;;;15.90;60.90;;;;;;4996318;28;20457;-81
2022/12/06 10:38:14;;;;;;;2.70;1.80;;;16.00;60.90;;;;;;4992138;28;20481;-81
2022/12/06 10:40:46;;;;;;;1.97;1.80;;;16.00;60.80;;;;;;4993815;28;20553;-81
2022/12/06 10:43:17;;;;;;;1.70;1.60;;;16.00;60.90;;;;;;5002800;28;20978;-82
2022/12/06 10:48:38;;;;;;;1.90;1.80;;;16.10;60.80;;;;;;4997569;28;20529;-82
2022/12/06 10:51:09;;;;;;;2.03;1.93;;;16.10;61.30;;;;;;4994379;28;20457;-81
2022/12/06 10:53:40;;;;;;;2.60;2.40;;;16.10;60.70;;;;;;5003117;28;20994;-82
2022/12/06 10:56:12;;;;;;;1.90;1.80;;;16.20;60.60;;;;;;4995369;28;20446;-82
2022/12/06 10:58:43;;;;;;;2.03;1.93;;;16.20;60.60;;;;;;4990393;28;20536;-82
2022/12/06 11:01:15;;;;;;;1.90;1.80;;;16.10;60.60;;;;;;5000941;28;20449;-82
2022/12/06 11:03:46;;;;;;;1.70;1.60;;;16.10;60.60;;;;;;4990153;28;20453;-81
2022/12/06 11:06:15;;;;;;;1.47;1.37;;;16.10;60.60;;;;;;4994308;28;20464;-81
2022/12/06 11:08:45;;;;;;;1.53;1.43;;;16.10;60.70;;;;;;4994655;28;20477;-80
2022/12/06 11:11:15;;;;;;;1.60;1.50;;;16.10;60.90;;;;;;4989856;28;20944;-82
2022/12/06 11:13:46;;;;;;;1.73;1.60;;;16.20;60.90;;;;;;4996995;28;20454;-81
2022/12/06 11:16:17;;;;;;;1.60;1.50;;;16.20;60.80;;;;;;4994700;28;20456;-81
2022/12/06 11:18:46;;;;;;;1.87;1.77;;;16.40;61.00;;;;;;4994543;28;20469;-81
2022/12/06 11:21:20;;;;;;;1.90;1.80;;;16.50;60.90;;;;;;4992771;28;20457;-82
2022/12/06 11:23:50;;;;;;;1.87;1.77;;;16.70;60.90;;;;;;4992410;28;20445;-81
2022/12/06 11:26:23;;;;;;;1.37;1.37;;;16.90;60.40;;;;;;4993930;28;20457;-81
2022/12/06 11:28:58;;;;;;;1.80;1.70;;;17.00;60.20;;;;;;4995438;28;20452;-82
2022/12/06 11:31:30;;;;;;;1.70;1.60;;;17.10;60.00;;;;;;4995799;28;20457;-81
2022/12/06 11:33:59;;;;;;;1.80;1.70;;;17.30;59.90;;;;;;4995134;28;20456;-82
2022/12/06 11:36:28;;;;;;;1.73;1.63;;;17.30;59.60;;;;;;4997607;28;20460;-82
2022/12/06 11:38:56;;;;;;;1.77;1.67;;;17.40;59.60;;;;;;4988637;28;20456;-81
2022/12/06 11:41:26;;;;;;;1.73;1.63;;;17.50;59.60;;;;;;4997885;28;20529;-82
2022/12/06 11:43:54;;;;;;;1.80;1.70;;;17.70;59.70;;;;;;4997341;28;20516;-82
2022/12/06 11:46:22;;;;;;;1.60;1.50;;;17.70;59.40;;;;;;4996865;28;20461;-82
2022/12/06 11:48:52;;;;;;;1.40;1.40;;;17.70;59.20;;;;;;4991317;28;20462;-82
2022/12/06 11:51:22;;;;;;;1.60;1.50;;;17.70;59.20;;;;;;4997143;28;20460;-81
2022/12/06 11:54:02;;;;;;;1.80;1.70;;;17.60;59.00;;;;;;4989715;28;20471;-81
2022/12/06 11:56:32;;;;;;;1.33;1.33;;;17.50;58.90;;;;;;4991133;28;20457;-82
2022/12/06 11:59:08;;;;;;;1.70;1.60;;;17.50;59.10;;;;;;4995255;28;20445;-80
2022/12/06 12:01:43;;;;;;;1.73;1.63;;;17.40;59.10;;;;;;4988022;28;20465;-80
2022/12/06 12:04:36;;;;;;;1.67;1.57;;;17.30;59.20;;;;;;4995654;28;20463;-80
2022/12/06 12:07:09;;;;;;;2.00;1.90;;;17.30;59.40;;;;;;4993551;28;20940;-80
2022/12/06 12:09:46;;;;;;;2.60;2.47;;;17.20;59.60;;;;;;5006346;28;20465;-80
2022/12/06 12:12:15;;;;;;;2.83;2.57;;;17.20;59.60;;;;;;5002273;28;20441;-80
2022/12/06 12:14:43;;;;;;;3.07;2.87;;;17.10;59.80;;;;;;5001938;28;20437;-80
2022/12/06 12:17:19;;;;;;;3.80;3.40;;;17.10;59.90;;;;;;5001868;28;21058;-81
2022/12/06 12:19:50;;;;;;;3.40;3.20;;;17.00;60.00;;;;;;5002123;28;20473;-81
2022/12/06 12:22:24;;;;;;;4.63;3.63;;;17.00;60.00;;;;;;5001427;28;20417;-80
2022/12/06 12:24:52;;;;;;;3.83;3.53;;;17.10;60.20;;;;;;5002060;28;21169;-82
2022/12/06 12:27:44;;;;;;;4.97;4.47;;;17.10;60.30;;;;;;4996253;28;20449;-83
2022/12/06 12:30:30;;;;;;;4.20;3.80;;;17.00;60.00;;;;;;5001787;28;20449;-82
2022/12/06 12:33:22;;;;;;;4.90;3.97;;;17.10;60.00;;;;;;5002200;28;20443;-80
2022/12/06 12:35:55;;;;;;;4.53;4.13;;;17.10;60.20;;;;;;4993313;28;20448;-82
2022/12/06 12:38:27;;;;;;;4.23;3.93;;;17.30;60.70;;;;;;5006685;28;20467;-82
2022/12/06 12:40:57;;;;;;;4.10;3.70;;;17.80;61.20;;;;;;5004294;28;20469;-81
2022/12/06 12:43:26;;;;;;;4.30;3.90;;;18.20;60.90;;;;;;5000034;28;20532;-82
2022/12/06 12:46:16;;;;;;;3.87;3.57;;;18.50;59.60;;;;;;4997776;28;20448;-83
2022/12/06 12:48:45;;;;;;;4.37;3.97;;;18.50;59.20;;;;;;5006767;28;20477;-81
2022/12/06 12:51:34;;;;;;;3.83;3.53;;;18.50;58.90;;;;;;5006819;28;20421;-81
2022/12/06 12:54:03;;;;;;;4.90;3.63;;;18.50;58.80;;;;;;5006368;28;20429;-82
2022/12/06 12:56:33;;;;;;;4.13;3.83;;;18.50;58.70;;;;;;5007088;28;20460;-80
2022/12/06 12:59:02;;;;;;;5.03;4.10;;;18.50;58.60;;;;;;5007218;28;20460;-80
2022/12/06 13:01:36;;;;;;;3.90;3.50;;;18.50;58.50;;;;;;5007381;28;20484;-81
2022/12/06 13:04:12;;;;;;;3.83;3.53;;;18.40;58.60;;;;;;5008095;28;20495;-83
2022/12/06 13:06:45;;;;;;;5.67;4.07;;;18.50;59.00;;;;;;5006052;28;20473;-81
2022/12/06 13:09:16;;;;;;;4.23;3.83;;;18.80;59.60;;;;;;5005645;28;20448;-80
2022/12/06 13:11:46;;;;;;;4.37;3.87;;;19.20;59.30;;;;;;5005725;28;20437;-79
2022/12/06 13:14:17;;;;;;;4.00;3.60;;;19.60;58.80;;;;;;5004957;28;20449;-81
2022/12/06 13:16:45;;;;;;;4.23;3.83;;;19.80;58.30;;;;;;5010503;28;20477;-81
2022/12/06 13:19:15;;;;;;;3.60;3.30;;;19.80;57.80;;;;;;4995872;28;20449;-80
2022/12/06 13:21:45;;;;;;;3.30;3.10;;;19.60;57.60;;;;;;4985553;28;20485;-80
2022/12/06 13:24:18;;;;;;;3.77;3.47;;;19.50;57.60;;;;;;5001986;28;20460;-81
2022/12/06 13:26:47;;;;;;;3.80;3.50;;;19.40;57.60;;;;;;4996814;28;20472;-81
2022/12/06 13:29:20;;;;;;;3.47;3.17;;;19.30;57.80;;;;;;4996577;28;20448;-82
2022/12/06 13:31:48;;;;;;;3.60;3.30;;;19.30;58.20;;;;;;5005820;28;20434;-81